Time,TemperatureF,DewpointF,PressureIn,WindDirection,WindDirectionDegrees,WindSpeedMPH,WindSpeedGustMPH,Humidity,HourlyPrecipIn,Conditions,Clouds,dailyrainin,SolarRadiationWatts/m^2,SoftwareType,DateUTC
2013-07-17 00:00:00,72.3,68.2,30.14,SW,223,6.0,6.0,87,0.00,,SKC,0.01,0.0,WeatherDisplay:10.37,2013-07-17 05:00:00,
2013-07-17 00:05:00,72.1,68.3,30.13,SW,222,5.8,5.8,88,0.00,,SKC,0.01,0.0,WeatherDisplay:10.37,2013-07-17 05:05:00,
2013-07-17 00:10:00,72.1,68.3,30.13,SW,222,5.0,5.0,88,0.00,,SKC,0.01,0.0,WeatherDisplay:10.37,2013-07-17 05:10:00,
2013-07-17 00:15:00,72.0,68.2,30.13,SW,222,4.6,4.6,88,0.00,,SKC,0.01,0.0,WeatherDisplay:10.37,2013-07-17 05:15:00,
2013-07-17 00:20:00,72.0,68.2,30.13,SW,222,5.0,5.0,88,0.00,,SKC,0.01,0.0,WeatherDisplay:10.37,2013-07-17 05:20:00,
2013-07-17 00:25:00,71.8,68.1,30.13,SW,222,4.6,4.6,88,0.00,,SKC,0.01,0.0,WeatherDisplay:10.37,2013-07-17 05:25:00,
2013-07-17 00:31:00,71.8,68.1,30.14,SW,222,6.0,6.0,88,0.00,,SKC,0.01,0.0,WeatherDisplay:10.37,2013-07-17 05:31:00,
2013-07-17 00:36:00,71.6,67.9,30.14,SW,222,4.6,4.6,88,0.00,,SKC,0.01,0.0,WeatherDisplay:10.37,2013-07-17 05:36:00,
2013-07-17 00:41:00,71.6,68.2,30.14,SW,222,5.0,5.0,89,0.00,,SKC,0.01,0.0,WeatherDisplay:10.37,2013-07-17 05:41:00,
2013-07-17 00:46:00,71.5,68.1,30.14,SW,222,4.0,4.0,89,0.00,,SKC,0.01,0.0,WeatherDisplay:10.37,2013-07-17 05:46:00,
2013-07-17 00:51:00,71.5,68.1,30.14,SW,222,5.0,5.0,89,0.00,,SKC,0.01,0.0,WeatherDisplay:10.37,2013-07-17 05:51:00,
2013-07-17 00:56:00,71.3,67.9,30.14,SW,222,5.0,5.0,89,0.00,,SKC,0.01,0.0,WeatherDisplay:10.37,2013-07-17 05:56:00,
2013-07-17 01:01:00,71.1,67.7,30.14,SW,222,3.5,3.5,89,0.00,,SKC,0.01,0.0,WeatherDisplay:10.37,2013-07-17 06:01:00,
2013-07-17 01:06:00,71.1,67.7,30.14,SW,222,5.8,5.8,89,0.00,,SKC,0.01,0.0,WeatherDisplay:10.37,2013-07-17 06:06:00,
2013-07-17 01:12:00,70.9,67.5,30.14,SW,222,4.0,4.0,89,0.00,,SKC,0.01,0.0,WeatherDisplay:10.37,2013-07-17 06:12:00,
2013-07-17 01:17:00,70.8,67.7,30.14,SW,222,4.0,4.0,90,0.00,,SKC,0.01,0.0,WeatherDisplay:10.37,2013-07-17 06:17:00,
2013-07-17 01:22:00,70.8,67.7,30.14,SW,222,4.0,4.0,90,0.00,,SKC,0.01,0.0,WeatherDisplay:10.37,2013-07-17 06:22:00,
2013-07-17 01:27:00,70.6,67.5,30.14,SW,222,5.0,5.0,90,0.00,,SKC,0.01,0.0,WeatherDisplay:10.37,2013-07-17 06:27:00,
2013-07-17 01:32:00,70.4,67.3,30.13,SW,222,5.0,5.0,90,0.00,,SKC,0.01,0.0,WeatherDisplay:10.37,2013-07-17 06:32:00,
2013-07-17 01:37:00,70.4,67.3,30.13,SW,220,6.9,6.9,90,0.00,,SKC,0.01,0.0,WeatherDisplay:10.37,2013-07-17 06:37:00,
2013-07-17 01:42:00,70.3,67.2,30.14,SW,220,4.6,4.6,90,0.00,,SKC,0.01,0.0,WeatherDisplay:10.37,2013-07-17 06:42:00,
2013-07-17 01:48:00,70.3,67.2,30.14,SW,220,2.3,2.3,90,0.00,,SKC,0.01,0.0,WeatherDisplay:10.37,2013-07-17 06:48:00,
2013-07-17 01:53:00,70.1,67.3,30.14,SW,220,4.0,4.0,91,0.00,,SKC,0.01,0.0,WeatherDisplay:10.37,2013-07-17 06:53:00,
2013-07-17 01:58:00,70.1,67.3,30.14,SW,220,5.0,5.0,91,0.00,,SKC,0.01,0.0,WeatherDisplay:10.37,2013-07-17 06:58:00,
2013-07-17 02:03:00,69.9,67.2,30.14,SW,215,6.9,6.9,91,0.00,,SKC,0.01,0.0,WeatherDisplay:10.37,2013-07-17 07:03:00,
2013-07-17 02:08:00,69.9,67.2,30.13,SSW,213,4.6,4.6,91,0.00,,SKC,0.01,0.0,WeatherDisplay:10.37,2013-07-17 07:08:00,
2013-07-17 02:13:00,69.8,67.1,30.13,SSW,210,6.9,6.9,91,0.00,,SKC,0.01,0.0,WeatherDisplay:10.37,2013-07-17 07:13:00,
2013-07-17 02:18:00,69.6,66.9,30.13,SSW,210,5.0,5.0,91,0.00,,SKC,0.01,0.0,WeatherDisplay:10.37,2013-07-17 07:18:00,
2013-07-17 02:23:00,69.6,66.9,30.13,SSW,210,6.0,6.0,91,0.00,,SKC,0.01,0.0,WeatherDisplay:10.37,2013-07-17 07:23:00,
2013-07-17 02:29:00,69.6,66.9,30.13,SSW,210,4.0,4.0,91,0.00,,SKC,0.01,0.0,WeatherDisplay:10.37,2013-07-17 07:29:00,
2013-07-17 02:34:00,69.4,67.0,30.13,SSW,210,4.6,4.6,92,0.00,,SKC,0.01,0.0,WeatherDisplay:10.37,2013-07-17 07:34:00,
2013-07-17 02:39:00,69.4,67.0,30.13,SSW,210,3.5,3.5,92,0.00,,SKC,0.01,0.0,WeatherDisplay:10.37,2013-07-17 07:39:00,
2013-07-17 02:44:00,69.4,67.0,30.14,SSW,210,3.5,3.5,92,0.00,,SKC,0.01,0.0,WeatherDisplay:10.37,2013-07-17 07:44:00,
2013-07-17 02:49:00,69.4,67.0,30.14,SSW,210,4.0,4.0,92,0.00,,SKC,0.01,0.0,WeatherDisplay:10.37,2013-07-17 07:49:00,
2013-07-17 02:54:00,69.4,67.0,30.14,SSW,210,4.0,4.0,92,0.00,,SKC,0.01,0.0,WeatherDisplay:10.37,2013-07-17 07:54:00,
2013-07-17 02:59:00,69.4,67.3,30.14,SW,224,4.0,4.0,93,0.00,,SKC,0.01,0.0,WeatherDisplay:10.37,2013-07-17 07:59:00,
2013-07-17 03:04:00,69.3,67.2,30.14,SW,227,5.0,7.0,93,0.00,,SKC,0.01,0.0,WeatherDisplay:10.37,2013-07-17 08:04:00,
2013-07-17 03:09:00,69.3,67.2,30.14,SW,231,5.8,5.8,93,0.00,,SKC,0.01,0.0,WeatherDisplay:10.37,2013-07-17 08:09:00,
2013-07-17 03:14:00,69.1,67.0,30.14,SW,231,3.0,5.0,93,0.00,,SKC,0.01,0.0,WeatherDisplay:10.37,2013-07-17 08:14:00,
2013-07-17 03:19:00,69.1,66.7,30.14,SW,234,5.0,6.0,92,0.00,,SKC,0.01,0.0,WeatherDisplay:10.37,2013-07-17 08:19:00,
2013-07-17 03:24:00,68.9,66.5,30.14,SW,236,5.0,6.0,92,0.00,,SKC,0.01,0.0,WeatherDisplay:10.37,2013-07-17 08:24:00,
2013-07-17 03:29:00,68.9,66.5,30.14,WSW,237,5.0,6.0,92,0.00,,SKC,0.01,0.0,WeatherDisplay:10.37,2013-07-17 08:29:00,
2013-07-17 03:34:00,68.8,66.4,30.14,WSW,237,5.0,7.0,92,0.00,,SKC,0.01,0.0,WeatherDisplay:10.37,2013-07-17 08:34:00,
2013-07-17 03:39:00,68.8,66.4,30.14,WSW,237,3.0,6.0,92,0.00,,SKC,0.01,0.0,WeatherDisplay:10.37,2013-07-17 08:39:00,
2013-07-17 03:44:00,68.6,66.2,30.15,WSW,237,5.0,5.0,92,0.00,,SKC,0.01,0.0,WeatherDisplay:10.37,2013-07-17 08:44:00,
2013-07-17 03:49:00,68.6,66.2,30.14,WSW,237,3.0,5.0,92,0.00,,SKC,0.01,0.0,WeatherDisplay:10.37,2013-07-17 08:49:00,
2013-07-17 03:54:00,68.4,66.0,30.14,WSW,237,5.0,5.0,92,0.00,,SKC,0.01,0.0,WeatherDisplay:10.37,2013-07-17 08:54:00,
2013-07-17 03:59:00,68.4,66.0,30.14,WSW,237,3.0,6.0,92,0.00,,SKC,0.01,0.0,WeatherDisplay:10.37,2013-07-17 08:59:00,
2013-07-17 04:04:00,68.3,65.9,30.14,WSW,237,5.0,5.0,92,0.00,,SKC,0.01,0.0,WeatherDisplay:10.37,2013-07-17 09:04:00,
2013-07-17 04:09:00,68.3,66.2,30.14,WSW,240,5.0,6.0,93,0.00,,SKC,0.01,0.0,WeatherDisplay:10.37,2013-07-17 09:09:00,
2013-07-17 04:14:00,68.1,66.0,30.14,WSW,242,6.0,7.0,93,0.00,,SKC,0.01,0.0,WeatherDisplay:10.37,2013-07-17 09:14:00,
2013-07-17 04:19:00,68.1,65.7,30.14,WSW,242,6.0,6.0,92,0.00,,SKC,0.01,0.0,WeatherDisplay:10.37,2013-07-17 09:19:00,
2013-07-17 04:24:00,67.9,65.5,30.14,WSW,242,3.0,6.0,92,0.00,,SKC,0.01,0.0,WeatherDisplay:10.37,2013-07-17 09:24:00,
2013-07-17 04:29:00,67.8,65.4,30.14,WSW,242,3.0,5.0,92,0.00,,SKC,0.01,0.0,WeatherDisplay:10.37,2013-07-17 09:29:00,
2013-07-17 04:34:00,67.8,65.4,30.14,WSW,242,5.0,6.0,92,0.00,,SKC,0.01,0.0,WeatherDisplay:10.37,2013-07-17 09:34:00,
2013-07-17 04:39:00,67.6,65.2,30.14,WSW,241,3.0,6.0,92,0.00,,SKC,0.01,0.0,WeatherDisplay:10.37,2013-07-17 09:39:00,
2013-07-17 04:45:00,67.6,65.2,30.15,WSW,240,3.5,3.5,92,0.00,,SKC,0.01,0.0,WeatherDisplay:10.37,2013-07-17 09:45:00,
2013-07-17 04:50:00,67.4,65.3,30.14,WSW,240,4.0,4.0,93,0.00,,SKC,0.01,0.0,WeatherDisplay:10.37,2013-07-17 09:50:00,
2013-07-17 04:55:00,67.4,65.3,30.14,WSW,240,4.0,4.0,93,0.00,,SKC,0.01,0.0,WeatherDisplay:10.37,2013-07-17 09:55:00,
2013-07-17 05:00:00,67.3,65.2,30.15,WSW,240,3.5,3.5,93,0.00,,SKC,0.01,0.0,WeatherDisplay:10.37,2013-07-17 10:00:00,
2013-07-17 05:05:00,67.3,65.2,30.15,WSW,240,4.0,4.0,93,0.00,,SKC,0.01,0.0,WeatherDisplay:10.37,2013-07-17 10:05:00,
2013-07-17 05:10:00,67.1,65.0,30.15,WSW,240,3.5,3.5,93,0.00,,SKC,0.01,0.0,WeatherDisplay:10.37,2013-07-17 10:10:00,
2013-07-17 05:15:00,67.1,65.0,30.15,WSW,240,3.5,3.5,93,0.00,,SKC,0.01,0.0,WeatherDisplay:10.37,2013-07-17 10:15:00,
2013-07-17 05:21:00,67.1,65.3,30.15,WSW,240,3.5,3.5,94,0.00,,SKC,0.01,0.0,WeatherDisplay:10.37,2013-07-17 10:21:00,
2013-07-17 05:26:00,67.1,65.3,30.15,WSW,240,3.5,3.5,94,0.00,,SKC,0.01,0.0,WeatherDisplay:10.37,2013-07-17 10:26:00,
2013-07-17 05:31:00,66.9,65.1,30.15,WSW,240,4.0,4.0,94,0.00,,SKC,0.01,0.0,WeatherDisplay:10.37,2013-07-17 10:31:00,
2013-07-17 05:36:00,66.9,65.1,30.15,WSW,240,5.0,5.0,94,0.00,,SKC,0.01,0.0,WeatherDisplay:10.37,2013-07-17 10:36:00,
2013-07-17 05:41:00,66.8,65.0,30.15,WSW,240,4.0,4.0,94,0.00,,SKC,0.01,0.0,WeatherDisplay:10.37,2013-07-17 10:41:00,
2013-07-17 05:46:00,66.8,65.0,30.15,WSW,240,4.6,4.6,94,0.00,,SKC,0.01,0.0,WeatherDisplay:10.37,2013-07-17 10:46:00,
2013-07-17 05:51:00,66.6,64.8,30.15,WSW,240,4.6,4.6,94,0.00,,SKC,0.01,0.0,WeatherDisplay:10.37,2013-07-17 10:51:00,
2013-07-17 05:57:00,66.6,64.8,30.16,WSW,240,6.0,6.0,94,0.00,,SKC,0.01,0.0,WeatherDisplay:10.37,2013-07-17 10:57:00,
2013-07-17 06:02:00,66.6,64.8,30.16,WSW,240,5.0,5.0,94,0.00,,SKC,0.01,0.0,WeatherDisplay:10.37,2013-07-17 11:02:00,
2013-07-17 06:07:00,66.6,64.8,30.16,WSW,240,5.0,5.0,94,0.00,,SKC,0.01,0.0,WeatherDisplay:10.37,2013-07-17 11:07:00,
2013-07-17 06:12:00,66.6,64.8,30.16,WSW,240,6.0,6.0,94,0.00,,SKC,0.01,0.0,WeatherDisplay:10.37,2013-07-17 11:12:00,
2013-07-17 06:17:00,66.6,65.1,30.16,WSW,240,5.8,5.8,95,0.00,,SKC,0.01,0.0,WeatherDisplay:10.37,2013-07-17 11:17:00,
2013-07-17 06:22:00,66.6,65.1,30.16,SW,235,5.8,5.8,95,0.00,,SKC,0.01,0.0,WeatherDisplay:10.37,2013-07-17 11:22:00,
2013-07-17 06:27:00,66.8,65.3,30.16,SW,235,6.0,6.0,95,0.00,,SKC,0.01,0.0,WeatherDisplay:10.37,2013-07-17 11:27:00,
2013-07-17 06:32:00,66.8,65.3,30.16,SW,235,5.8,5.8,95,0.00,,SKC,0.01,0.0,WeatherDisplay:10.37,2013-07-17 11:32:00,
2013-07-17 06:38:00,66.8,65.3,30.16,SW,235,3.5,3.5,95,0.00,,SKC,0.01,0.0,WeatherDisplay:10.37,2013-07-17 11:38:00,
2013-07-17 06:43:00,66.9,65.7,30.16,SW,235,5.8,5.8,96,0.00,,SKC,0.01,0.0,WeatherDisplay:10.37,2013-07-17 11:43:00,
2013-07-17 06:48:00,67.1,65.9,30.16,SW,234,4.6,4.6,96,0.00,,SKC,0.01,0.0,WeatherDisplay:10.37,2013-07-17 11:48:00,
2013-07-17 06:53:00,67.3,66.1,30.16,SW,234,4.6,4.6,96,0.00,,SKC,0.01,0.0,WeatherDisplay:10.37,2013-07-17 11:53:00,
2013-07-17 06:58:00,67.6,66.7,30.16,WSW,239,6.0,6.0,97,0.00,,SKC,0.01,0.0,WeatherDisplay:10.37,2013-07-17 11:58:00,
2013-07-17 07:03:00,67.9,67.3,30.16,WSW,237,5.8,5.8,98,0.00,RA,SKC,0.00,0.0,WeatherDisplay:10.37,2013-07-17 12:03:00,
2013-07-17 07:08:00,68.3,67.7,30.17,WSW,237,6.0,6.0,98,0.00,RA,SKC,0.00,0.0,WeatherDisplay:10.37,2013-07-17 12:08:00,
2013-07-17 07:14:00,68.8,68.2,30.17,SW,235,6.0,6.0,98,0.00,OVC,SKC,0.00,0.0,WeatherDisplay:10.37,2013-07-17 12:14:00,
2013-07-17 07:19:00,69.1,68.8,30.17,SW,234,3.5,3.5,99,0.00,OVC,SKC,0.00,0.0,WeatherDisplay:10.37,2013-07-17 12:19:00,
2013-07-17 07:24:00,69.6,69.3,30.17,SW,229,5.8,5.8,99,0.00,OVC,SKC,0.00,0.0,WeatherDisplay:10.37,2013-07-17 12:24:00,
2013-07-17 07:29:00,69.9,69.6,30.17,SW,229,4.6,4.6,99,0.00,OVC,SKC,0.00,0.0,WeatherDisplay:10.37,2013-07-17 12:29:00,
2013-07-17 07:34:00,70.3,70.0,30.17,WSW,238,5.0,5.0,99,0.00,OVC,SKC,0.00,0.0,WeatherDisplay:10.37,2013-07-17 12:34:00,
2013-07-17 07:39:00,70.6,70.3,30.17,SW,236,5.0,5.0,99,0.00,OVC,SKC,0.00,0.0,WeatherDisplay:10.37,2013-07-17 12:39:00,
2013-07-17 07:44:00,70.8,70.5,30.17,WSW,245,8.0,8.0,99,0.00,OVC,SKC,0.00,0.0,WeatherDisplay:10.37,2013-07-17 12:44:00,
2013-07-17 07:49:00,70.9,70.6,30.17,SW,235,9.0,9.0,99,0.00,OVC,SKC,0.00,0.0,WeatherDisplay:10.37,2013-07-17 12:49:00,
2013-07-17 07:54:00,71.1,70.8,30.17,WSW,241,6.0,8.0,99,0.00,OVC,SKC,0.00,0.0,WeatherDisplay:10.37,2013-07-17 12:54:00,
2013-07-17 07:59:00,71.3,71.0,30.17,WSW,243,6.0,9.0,99,0.00,OVC,SKC,0.00,0.0,WeatherDisplay:10.37,2013-07-17 12:59:00,
2013-07-17 08:04:00,71.3,71.0,30.17,WSW,247,6.0,9.0,99,0.00,OVC,SKC,0.00,0.0,WeatherDisplay:10.37,2013-07-17 13:04:00,
2013-07-17 08:09:00,71.5,71.0,30.17,West,262,5.0,7.0,98,0.00,OVC,SKC,0.00,0.0,WeatherDisplay:10.37,2013-07-17 13:09:00,
2013-07-17 08:14:00,71.8,71.2,30.17,West,267,6.0,9.0,98,0.00,OVC,SKC,0.00,0.0,WeatherDisplay:10.37,2013-07-17 13:14:00,
2013-07-17 08:19:00,72.0,70.8,30.17,WSW,254,5.0,10.0,96,0.00,OVC,SKC,0.00,0.0,WeatherDisplay:10.37,2013-07-17 13:19:00,
2013-07-17 08:24:00,72.3,70.8,30.17,WSW,245,6.0,10.0,95,0.00,OVC,SKC,0.00,0.0,WeatherDisplay:10.37,2013-07-17 13:24:00,
2013-07-17 08:29:00,72.5,70.4,30.17,WSW,249,7.0,9.0,93,0.00,OVC,SKC,0.00,0.0,WeatherDisplay:10.37,2013-07-17 13:29:00,
2013-07-17 08:34:00,72.8,69.7,30.17,WSW,252,8.0,10.0,90,0.00,OVC,SKC,0.00,0.0,WeatherDisplay:10.37,2013-07-17 13:34:00,
2013-07-17 08:39:00,73.2,69.4,30.17,WSW,249,7.0,12.0,88,0.00,OVC,SKC,0.00,0.0,WeatherDisplay:10.37,2013-07-17 13:39:00,
2013-07-17 08:44:00,73.5,69.4,30.17,WSW,251,5.0,9.0,87,0.00,OVC,SKC,0.00,0.0,WeatherDisplay:10.37,2013-07-17 13:44:00,
2013-07-17 08:49:00,74.0,69.2,30.17,WSW,256,7.0,10.0,85,0.00,OVC,SKC,0.00,0.0,WeatherDisplay:10.37,2013-07-17 13:49:00,
2013-07-17 08:54:00,74.5,69.0,30.17,WSW,252,7.0,12.0,83,0.00,OVC,SKC,0.00,0.0,WeatherDisplay:10.37,2013-07-17 13:54:00,
2013-07-17 08:59:00,74.9,69.0,30.17,WSW,253,12.7,12.7,82,0.00,OVC,SKC,0.00,0.0,WeatherDisplay:10.37,2013-07-17 13:59:00,
2013-07-17 09:04:00,75.3,69.1,30.17,WSW,252,7.0,10.0,81,0.00,OVC,SKC,0.00,0.0,WeatherDisplay:10.37,2013-07-17 14:04:00,
2013-07-17 09:09:00,75.8,68.8,30.17,WSW,257,9.2,9.2,79,0.00,OVC,SKC,0.00,0.0,WeatherDisplay:10.37,2013-07-17 14:09:00,
2013-07-17 09:14:00,76.3,68.9,30.17,West,260,8.0,12.0,78,0.00,OVC,SKC,0.00,0.0,WeatherDisplay:10.37,2013-07-17 14:14:00,
2013-07-17 09:19:00,76.7,68.6,30.17,West,270,5.0,14.0,76,0.00,OVC,SKC,0.00,0.0,WeatherDisplay:10.37,2013-07-17 14:19:00,
2013-07-17 09:25:00,77.2,69.0,30.17,West,266,15.0,15.0,76,0.00,OVC,SKC,0.00,0.0,WeatherDisplay:10.37,2013-07-17 14:25:00,
2013-07-17 09:30:00,77.6,68.7,30.17,West,275,9.2,9.2,74,0.00,OVC,SKC,0.00,0.0,WeatherDisplay:10.37,2013-07-17 14:30:00,
2013-07-17 09:35:00,77.9,68.9,30.16,WSW,237,9.2,9.2,74,0.00,OVC,SKC,0.00,0.0,WeatherDisplay:10.37,2013-07-17 14:35:00,
2013-07-17 09:40:00,78.3,69.3,30.16,SW,225,11.5,11.5,74,0.00,OVC,SKC,0.00,0.0,WeatherDisplay:10.37,2013-07-17 14:40:00,
2013-07-17 09:45:00,78.5,69.1,30.16,West,266,12.7,12.7,73,0.00,OVC,SKC,0.00,0.0,WeatherDisplay:10.37,2013-07-17 14:45:00,
2013-07-17 09:50:00,78.6,68.8,30.16,WSW,253,11.5,11.5,72,0.00,OVC,SKC,0.00,0.0,WeatherDisplay:10.37,2013-07-17 14:50:00,
2013-07-17 09:55:00,78.8,69.0,30.16,West,261,12.0,12.0,72,0.00,OVC,SKC,0.00,0.0,WeatherDisplay:10.37,2013-07-17 14:55:00,
2013-07-17 10:01:00,79.0,68.8,30.16,SW,229,15.0,15.0,71,0.00,OVC,SKC,0.00,0.0,WeatherDisplay:10.37,2013-07-17 15:01:00,
2013-07-17 10:06:00,79.4,68.8,30.16,WSW,250,11.5,11.5,70,0.00,OVC,SKC,0.00,0.0,WeatherDisplay:10.37,2013-07-17 15:06:00,
2013-07-17 10:11:00,79.6,69.0,30.16,WSW,242,10.4,10.4,70,0.00,OVC,SKC,0.00,0.0,WeatherDisplay:10.37,2013-07-17 15:11:00,
2013-07-17 10:16:00,79.6,68.5,30.16,West,266,11.5,11.5,69,0.00,OVC,SKC,0.00,0.0,WeatherDisplay:10.37,2013-07-17 15:16:00,
2013-07-17 10:21:00,79.8,68.7,30.16,WSW,237,13.8,13.8,69,0.00,OVC,SKC,0.00,0.0,WeatherDisplay:10.37,2013-07-17 15:21:00,
2013-07-17 10:26:00,79.9,68.4,30.16,WSW,243,8.1,8.1,68,0.00,OVC,SKC,0.00,0.0,WeatherDisplay:10.37,2013-07-17 15:26:00,
2013-07-17 10:31:00,80.1,68.6,30.16,WNW,291,14.0,14.0,68,0.00,OVC,SKC,0.00,0.0,WeatherDisplay:10.37,2013-07-17 15:31:00,
2013-07-17 10:37:00,80.3,68.8,30.16,West,266,10.4,10.4,68,0.00,OVC,SKC,0.00,0.0,WeatherDisplay:10.37,2013-07-17 15:37:00,
2013-07-17 10:42:00,80.7,69.2,30.15,WSW,253,9.2,9.2,68,0.00,OVC,SKC,0.00,0.0,WeatherDisplay:10.37,2013-07-17 15:42:00,
2013-07-17 10:47:00,80.9,68.9,30.15,WNW,294,10.4,10.4,67,0.00,OVC,SKC,0.00,0.0,WeatherDisplay:10.37,2013-07-17 15:47:00,
2013-07-17 10:52:00,81.1,68.7,30.15,WSW,257,11.5,11.5,66,0.00,OVC,SKC,0.00,0.0,WeatherDisplay:10.37,2013-07-17 15:52:00,
2013-07-17 10:57:00,81.2,68.8,30.15,West,266,15.0,15.0,66,0.00,OVC,SKC,0.00,0.0,WeatherDisplay:10.37,2013-07-17 15:57:00,
2013-07-17 11:02:00,81.8,69.8,30.15,West,261,13.8,13.8,67,0.00,OVC,SKC,0.00,0.0,WeatherDisplay:10.37,2013-07-17 16:02:00,
2013-07-17 11:07:00,82.2,70.1,30.15,WSW,253,11.5,11.5,67,0.00,OVC,SKC,0.00,0.0,WeatherDisplay:10.37,2013-07-17 16:07:00,
2013-07-17 11:12:00,82.6,68.7,30.15,WSW,257,15.0,15.0,63,0.00,OVC,SKC,0.00,0.0,WeatherDisplay:10.37,2013-07-17 16:12:00,
2013-07-17 11:18:00,82.6,68.3,30.15,WSW,257,10.0,10.0,62,0.00,OVC,SKC,0.00,0.0,WeatherDisplay:10.37,2013-07-17 16:18:00,
2013-07-17 11:23:00,82.8,69.4,30.15,West,266,9.2,9.2,64,0.00,OVC,SKC,0.00,0.0,WeatherDisplay:10.37,2013-07-17 16:23:00,
2013-07-17 11:28:00,82.8,68.9,30.15,SW,222,16.1,16.1,63,0.00,OVC,SKC,0.00,0.0,WeatherDisplay:10.37,2013-07-17 16:28:00,
2013-07-17 11:33:00,83.0,68.6,30.15,WSW,256,12.7,12.7,62,0.00,OVC,SKC,0.00,0.0,WeatherDisplay:10.37,2013-07-17 16:33:00,
2013-07-17 11:38:00,82.8,69.4,30.14,SW,230,11.5,11.5,64,0.00,OVC,SKC,0.00,0.0,WeatherDisplay:10.37,2013-07-17 16:38:00,
2013-07-17 11:43:00,83.2,69.3,30.14,SW,230,13.8,13.8,63,0.00,OVC,SKC,0.00,0.0,WeatherDisplay:10.37,2013-07-17 16:43:00,
2013-07-17 11:48:00,83.0,69.1,30.14,WNW,288,12.7,12.7,63,0.00,OVC,SKC,0.00,0.0,WeatherDisplay:10.37,2013-07-17 16:48:00,
2013-07-17 11:54:00,82.6,69.2,30.14,West,266,9.2,9.2,64,0.00,OVC,SKC,0.00,0.0,WeatherDisplay:10.37,2013-07-17 16:54:00,
2013-07-17 11:59:00,82.6,69.2,30.14,WSW,256,11.5,11.5,64,0.00,OVC,SKC,0.00,0.0,WeatherDisplay:10.37,2013-07-17 16:59:00,
2013-07-17 12:04:00,82.8,68.4,30.14,SSW,209,19.6,19.6,62,0.00,OVC,SKC,0.00,0.0,WeatherDisplay:10.37,2013-07-17 17:04:00,
2013-07-17 12:09:00,82.8,69.4,30.14,West,271,9.2,9.2,64,0.00,OVC,SKC,0.00,0.0,WeatherDisplay:10.37,2013-07-17 17:09:00,
2013-07-17 12:14:00,83.6,67.8,30.14,West,266,17.3,17.3,59,0.00,OVC,SKC,0.00,0.0,WeatherDisplay:10.37,2013-07-17 17:14:00,
2013-07-17 12:19:00,83.2,68.3,30.14,West,266,20.0,20.0,61,0.00,OVC,SKC,0.00,0.0,WeatherDisplay:10.37,2013-07-17 17:19:00,
2013-07-17 12:24:00,83.4,68.5,30.14,West,266,10.4,10.4,61,0.00,OVC,SKC,0.00,0.0,WeatherDisplay:10.37,2013-07-17 17:24:00,
2013-07-17 12:29:00,84.1,68.2,30.14,WSW,250,13.8,13.8,59,0.00,OVC,SKC,0.00,0.0,WeatherDisplay:10.37,2013-07-17 17:29:00,
2013-07-17 12:34:00,83.6,68.7,30.14,SW,236,12.0,15.0,61,0.00,OVC,SKC,0.00,0.0,WeatherDisplay:10.37,2013-07-17 17:34:00,
2013-07-17 12:39:00,83.4,70.8,30.14,WSW,252,12.7,12.7,66,0.00,OVC,SKC,0.00,0.0,WeatherDisplay:10.37,2013-07-17 17:39:00,
2013-07-17 12:45:00,84.3,68.9,30.14,WSW,244,15.0,15.0,60,0.00,OVC,SKC,0.00,0.0,WeatherDisplay:10.37,2013-07-17 17:45:00,
2013-07-17 12:50:00,83.6,69.2,30.14,SW,215,15.0,15.0,62,0.00,OVC,SKC,0.00,0.0,WeatherDisplay:10.37,2013-07-17 17:50:00,
2013-07-17 12:55:00,83.8,69.4,30.14,SW,233,17.0,17.0,62,0.00,OVC,SKC,0.00,0.0,WeatherDisplay:10.37,2013-07-17 17:55:00,
2013-07-17 13:00:00,84.5,70.5,30.14,WSW,250,16.1,16.1,63,0.00,OVC,SKC,0.00,0.0,WeatherDisplay:10.37,2013-07-17 18:00:00,
2013-07-17 13:05:00,84.5,69.1,30.14,SW,229,13.8,13.8,60,0.00,OVC,SKC,0.00,0.0,WeatherDisplay:10.37,2013-07-17 18:05:00,
2013-07-17 13:10:00,84.7,69.8,30.13,West,266,12.0,12.0,61,0.00,OVC,SKC,0.00,0.0,WeatherDisplay:10.37,2013-07-17 18:10:00,
2013-07-17 13:15:00,84.7,70.7,30.13,WSW,242,18.0,18.0,63,0.00,OVC,SKC,0.00,0.0,WeatherDisplay:10.37,2013-07-17 18:15:00,
2013-07-17 13:21:00,84.3,68.9,30.13,SW,233,11.5,11.5,60,0.00,OVC,SKC,0.00,0.0,WeatherDisplay:10.37,2013-07-17 18:21:00,
2013-07-17 13:26:00,84.7,68.8,30.13,West,266,9.2,9.2,59,0.00,OVC,SKC,0.00,0.0,WeatherDisplay:10.37,2013-07-17 18:26:00,
2013-07-17 13:31:00,84.3,69.4,30.13,SW,227,15.0,15.0,61,0.00,OVC,SKC,0.00,0.0,WeatherDisplay:10.37,2013-07-17 18:31:00,
2013-07-17 13:36:00,84.9,69.0,30.13,WSW,256,25.0,25.0,59,0.00,OVC,SKC,0.00,0.0,WeatherDisplay:10.37,2013-07-17 18:36:00,
2013-07-17 13:41:00,84.5,69.1,30.13,WSW,257,17.3,17.3,60,0.00,OVC,SKC,0.00,0.0,WeatherDisplay:10.37,2013-07-17 18:41:00,
2013-07-17 13:46:00,85.1,68.7,30.12,West,266,20.7,20.7,58,0.00,OVC,SKC,0.00,0.0,WeatherDisplay:10.37,2013-07-17 18:46:00,
2013-07-17 13:51:00,84.9,67.5,30.12,West,266,23.0,23.0,56,0.00,OVC,SKC,0.00,0.0,WeatherDisplay:10.37,2013-07-17 18:51:00,
2013-07-17 13:56:00,85.5,69.0,30.12,SW,235,21.0,21.0,58,0.00,OVC,SKC,0.00,0.0,WeatherDisplay:10.37,2013-07-17 18:56:00,
2013-07-17 14:02:00,85.9,69.9,30.12,West,266,13.8,13.8,59,0.00,OVC,SKC,0.00,0.0,WeatherDisplay:10.37,2013-07-17 19:02:00,
2013-07-17 14:07:00,85.3,68.8,30.12,SW,231,19.6,19.6,58,0.00,OVC,SKC,0.00,0.0,WeatherDisplay:10.37,2013-07-17 19:07:00,
2013-07-17 14:12:00,85.7,69.7,30.11,WSW,242,10.4,10.4,59,0.00,OVC,SKC,0.00,0.0,WeatherDisplay:10.37,2013-07-17 19:12:00,
2013-07-17 14:17:00,85.5,69.0,30.11,SW,233,18.0,18.0,58,0.00,OVC,SKC,0.00,0.0,WeatherDisplay:10.37,2013-07-17 19:17:00,
2013-07-17 14:22:00,85.1,68.2,30.11,WSW,237,23.0,23.0,57,0.00,OVC,SKC,0.00,0.0,WeatherDisplay:10.37,2013-07-17 19:22:00,
2013-07-17 14:27:00,85.3,68.8,30.11,SW,235,19.6,19.6,58,0.00,OVC,SKC,0.00,0.0,WeatherDisplay:10.37,2013-07-17 19:27:00,
2013-07-17 14:32:00,85.1,69.2,30.10,WSW,241,15.0,15.0,59,0.00,OVC,SKC,0.00,0.0,WeatherDisplay:10.37,2013-07-17 19:32:00,
2013-07-17 14:38:00,85.3,68.3,30.10,WSW,248,15.0,15.0,57,0.00,OVC,SKC,0.00,0.0,WeatherDisplay:10.37,2013-07-17 19:38:00,
2013-07-17 14:43:00,85.9,68.4,30.10,SW,231,15.0,15.0,56,0.00,OVC,SKC,0.00,0.0,WeatherDisplay:10.37,2013-07-17 19:43:00,
2013-07-17 14:48:00,85.9,68.9,30.10,WSW,248,15.0,15.0,57,0.00,OVC,SKC,0.00,0.0,WeatherDisplay:10.37,2013-07-17 19:48:00,
2013-07-17 14:53:00,84.9,69.0,30.10,WSW,251,9.2,9.2,59,0.00,OVC,SKC,0.00,0.0,WeatherDisplay:10.37,2013-07-17 19:53:00,
2013-07-17 14:58:00,85.1,69.7,30.10,WSW,257,11.5,11.5,60,0.00,OVC,SKC,0.00,0.0,WeatherDisplay:10.37,2013-07-17 19:58:00,
2013-07-17 15:03:00,85.5,69.0,30.10,West,277,20.0,20.0,58,0.00,OVC,SKC,0.00,0.0,WeatherDisplay:10.37,2013-07-17 20:03:00,
2013-07-17 15:08:00,85.9,67.9,30.10,WNW,283,23.0,23.0,55,0.00,OVC,SKC,0.00,0.0,WeatherDisplay:10.37,2013-07-17 20:08:00,
2013-07-17 15:13:00,85.5,67.5,30.10,WSW,242,16.1,16.1,55,0.00,OVC,SKC,0.00,0.0,WeatherDisplay:10.37,2013-07-17 20:13:00,
2013-07-17 15:19:00,86.3,67.7,30.10,SSW,212,16.0,16.0,54,0.00,OVC,SKC,0.00,0.0,WeatherDisplay:10.37,2013-07-17 20:19:00,
2013-07-17 15:24:00,85.5,68.5,30.10,WSW,237,19.0,19.0,57,0.00,OVC,SKC,0.00,0.0,WeatherDisplay:10.37,2013-07-17 20:24:00,
2013-07-17 15:29:00,85.5,68.0,30.09,SW,235,13.8,13.8,56,0.00,OVC,SKC,0.00,0.0,WeatherDisplay:10.37,2013-07-17 20:29:00,
2013-07-17 15:34:00,85.3,69.3,30.10,WSW,252,21.0,21.0,59,0.00,OVC,SKC,0.00,0.0,WeatherDisplay:10.37,2013-07-17 20:34:00,
2013-07-17 15:39:00,84.9,69.0,30.09,WSW,256,17.3,17.3,59,0.00,OVC,SKC,0.00,0.0,WeatherDisplay:10.37,2013-07-17 20:39:00,
2013-07-17 15:44:00,84.7,69.3,30.09,SW,233,18.4,18.4,60,0.00,OVC,SKC,0.00,0.0,WeatherDisplay:10.37,2013-07-17 20:44:00,
2013-07-17 15:49:00,84.7,69.3,30.09,SW,223,15.0,15.0,60,0.00,OVC,SKC,0.00,0.0,WeatherDisplay:10.37,2013-07-17 20:49:00,
2013-07-17 15:54:00,84.8,67.8,30.09,WSW,241,10.0,17.0,57,0.00,OVC,SKC,0.00,0.0,WeatherDisplay:10.37,2013-07-17 20:54:00,
2013-07-17 15:59:00,85.9,69.9,30.09,WSW,248,13.0,13.0,59,0.00,OVC,SKC,0.00,0.0,WeatherDisplay:10.37,2013-07-17 20:59:00,
2013-07-17 16:04:00,86.1,70.1,30.09,WSW,237,10.0,17.0,59,0.00,OVC,SKC,0.00,0.0,WeatherDisplay:10.37,2013-07-17 21:04:00,
2013-07-17 16:09:00,85.9,70.4,30.09,WSW,254,17.0,17.0,60,0.00,OVC,SKC,0.00,0.0,WeatherDisplay:10.37,2013-07-17 21:09:00,
2013-07-17 16:14:00,85.5,69.0,30.09,WSW,254,9.0,15.0,58,0.00,OVC,SKC,0.00,0.0,WeatherDisplay:10.37,2013-07-17 21:14:00,
2013-07-17 16:20:00,84.7,69.8,30.09,WSW,252,13.0,15.0,61,0.00,OVC,SKC,0.00,0.0,WeatherDisplay:10.37,2013-07-17 21:20:00,
2013-07-17 16:25:00,84.3,69.9,30.09,West,261,9.2,9.2,62,0.00,OVC,SKC,0.00,0.0,WeatherDisplay:10.37,2013-07-17 21:25:00,
2013-07-17 16:30:00,84.3,69.9,30.09,SW,230,18.4,18.4,62,0.00,OVC,SKC,0.00,0.0,WeatherDisplay:10.37,2013-07-17 21:30:00,
2013-07-17 16:35:00,84.0,69.6,30.08,WSW,250,12.7,12.7,62,0.00,OVC,SKC,0.00,0.0,WeatherDisplay:10.37,2013-07-17 21:35:00,
2013-07-17 16:40:00,84.3,68.9,30.08,SW,223,13.8,13.8,60,0.00,OVC,SKC,0.00,0.0,WeatherDisplay:10.37,2013-07-17 21:40:00,
2013-07-17 16:45:00,85.3,69.3,30.08,WSW,251,15.0,15.0,59,0.00,OVC,SKC,0.00,0.0,WeatherDisplay:10.37,2013-07-17 21:45:00,
2013-07-17 16:50:00,85.3,70.3,30.08,SW,235,16.1,16.1,61,0.00,OVC,SKC,0.00,0.0,WeatherDisplay:10.37,2013-07-17 21:50:00,
2013-07-17 16:55:00,85.5,69.5,30.08,SW,223,13.8,13.8,59,0.00,OVC,SKC,0.00,0.0,WeatherDisplay:10.37,2013-07-17 21:55:00,
2013-07-17 17:01:00,85.5,69.0,30.08,WSW,241,15.0,15.0,58,0.00,OVC,SKC,0.00,0.0,WeatherDisplay:10.37,2013-07-17 22:01:00,
2013-07-17 17:06:00,85.3,69.8,30.08,WSW,255,11.5,11.5,60,0.00,OVC,SKC,0.00,0.0,WeatherDisplay:10.37,2013-07-17 22:06:00,
2013-07-17 17:11:00,84.9,69.5,30.08,WSW,257,11.5,11.5,60,0.00,OVC,SKC,0.00,0.0,WeatherDisplay:10.37,2013-07-17 22:11:00,
2013-07-17 17:16:00,84.5,70.5,30.08,WSW,245,11.5,11.5,63,0.00,OVC,SKC,0.00,0.0,WeatherDisplay:10.37,2013-07-17 22:16:00,
2013-07-17 17:21:00,84.3,70.3,30.08,WSW,237,11.5,11.5,63,0.00,OVC,SKC,0.00,0.0,WeatherDisplay:10.37,2013-07-17 22:21:00,
2013-07-17 17:26:00,84.5,70.5,30.08,SW,215,12.0,12.0,63,0.00,OVC,SKC,0.00,0.0,WeatherDisplay:10.37,2013-07-17 22:26:00,
2013-07-17 17:31:00,84.9,70.4,30.08,WSW,246,13.8,13.8,62,0.00,OVC,SKC,0.00,0.0,WeatherDisplay:10.37,2013-07-17 22:31:00,
2013-07-17 17:37:00,85.1,69.2,30.07,WSW,238,12.0,12.0,59,0.00,OVC,SKC,0.00,0.0,WeatherDisplay:10.37,2013-07-17 22:37:00,
2013-07-17 17:42:00,85.1,69.2,30.07,WSW,239,13.8,13.8,59,0.00,OVC,SKC,0.00,0.0,WeatherDisplay:10.37,2013-07-17 22:42:00,
2013-07-17 17:47:00,84.9,69.9,30.07,WSW,243,14.0,14.0,61,0.00,OVC,SKC,0.00,0.0,WeatherDisplay:10.37,2013-07-17 22:47:00,
2013-07-17 17:52:00,85.3,71.3,30.07,WSW,237,11.0,11.0,63,0.00,OVC,SKC,0.00,0.0,WeatherDisplay:10.37,2013-07-17 22:52:00,
2013-07-17 17:57:00,85.1,71.5,30.07,WSW,250,9.2,9.2,64,0.00,OVC,SKC,0.00,0.0,WeatherDisplay:10.37,2013-07-17 22:57:00,
2013-07-17 18:02:00,84.9,70.4,30.07,WSW,250,10.0,10.0,62,0.00,OVC,SKC,0.00,0.0,WeatherDisplay:10.37,2013-07-17 23:02:00,
2013-07-17 18:07:00,84.9,69.9,30.06,SW,215,12.7,12.7,61,0.00,OVC,SKC,0.00,0.0,WeatherDisplay:10.37,2013-07-17 23:07:00,
2013-07-17 18:12:00,85.1,70.6,30.06,South,191,10.4,10.4,62,0.00,OVC,SKC,0.00,0.0,WeatherDisplay:10.37,2013-07-17 23:12:00,
2013-07-17 18:18:00,84.3,69.4,30.06,SW,215,12.7,12.7,61,0.00,OVC,SKC,0.00,0.0,WeatherDisplay:10.37,2013-07-17 23:18:00,
2013-07-17 18:23:00,84.3,70.3,30.06,SW,235,17.3,17.3,63,0.00,OVC,SKC,0.00,0.0,WeatherDisplay:10.37,2013-07-17 23:23:00,
2013-07-17 18:28:00,84.5,70.5,30.06,SW,216,15.0,15.0,63,0.00,OVC,SKC,0.00,0.0,WeatherDisplay:10.37,2013-07-17 23:28:00,
2013-07-17 18:33:00,84.5,70.5,30.06,WSW,242,17.3,17.3,63,0.00,OVC,SKC,0.00,0.0,WeatherDisplay:10.37,2013-07-17 23:33:00,
2013-07-17 18:38:00,84.5,70.5,30.06,WSW,239,11.5,11.5,63,0.00,OVC,SKC,0.00,0.0,WeatherDisplay:10.37,2013-07-17 23:38:00,
2013-07-17 18:43:00,84.5,70.0,30.06,WSW,247,13.0,13.0,62,0.00,OVC,SKC,0.00,0.0,WeatherDisplay:10.37,2013-07-17 23:43:00,
2013-07-17 18:48:00,84.1,71.1,30.06,SSW,200,12.7,12.7,65,0.00,OVC,SKC,0.00,0.0,WeatherDisplay:10.37,2013-07-17 23:48:00,
2013-07-17 18:54:00,84.0,71.0,30.06,SW,234,9.2,9.2,65,0.00,OVC,SKC,0.00,0.0,WeatherDisplay:10.37,2013-07-17 23:54:00,
2013-07-17 18:59:00,83.6,70.1,30.06,SW,226,11.5,11.5,64,0.00,OVC,SKC,0.00,0.0,WeatherDisplay:10.37,2013-07-17 23:59:00,
2013-07-17 19:04:00,83.4,69.9,30.05,WSW,244,13.8,13.8,64,0.00,,SKC,0.00,0.0,WeatherDisplay:10.37,2013-07-18 00:04:00,
2013-07-17 19:09:00,83.0,70.5,30.05,WSW,242,9.2,9.2,66,0.00,,SKC,0.00,0.0,WeatherDisplay:10.37,2013-07-18 00:09:00,
2013-07-17 19:14:00,82.6,70.1,30.05,WSW,248,9.2,9.2,66,0.00,,SKC,0.00,0.0,WeatherDisplay:10.37,2013-07-18 00:14:00,
2013-07-17 19:19:00,82.2,70.6,30.06,WSW,248,11.5,11.5,68,0.00,,SKC,0.00,0.0,WeatherDisplay:10.37,2013-07-18 00:19:00,
2013-07-17 19:24:00,81.8,70.6,30.06,WSW,242,11.5,11.5,69,0.00,,SKC,0.00,0.0,WeatherDisplay:10.37,2013-07-18 00:24:00,
2013-07-17 19:29:00,81.4,70.7,30.06,SW,231,11.5,11.5,70,0.00,,SKC,0.00,0.0,WeatherDisplay:10.37,2013-07-18 00:29:00,
2013-07-17 19:34:00,81.2,70.5,30.06,WSW,239,7.0,10.0,70,0.00,,SKC,0.00,0.0,WeatherDisplay:10.37,2013-07-18 00:34:00,
2013-07-17 19:39:00,80.9,71.0,30.06,WSW,245,5.0,8.0,72,0.00,,SKC,0.00,0.0,WeatherDisplay:10.37,2013-07-18 00:39:00,
2013-07-17 19:44:00,80.5,70.6,30.06,WSW,248,6.0,9.0,72,0.00,,SKC,0.00,0.0,WeatherDisplay:10.37,2013-07-18 00:44:00,
2013-07-17 19:49:00,79.9,70.8,30.06,WSW,253,5.0,8.0,74,0.00,,SKC,0.00,0.0,WeatherDisplay:10.37,2013-07-18 00:49:00,
2013-07-17 19:55:00,79.2,71.4,30.06,WSW,252,6.9,6.9,77,0.00,,SKC,0.00,0.0,WeatherDisplay:10.37,2013-07-18 00:55:00,
2013-07-17 20:00:00,78.8,71.4,30.06,WSW,255,5.0,5.0,78,0.00,,SKC,0.00,0.0,WeatherDisplay:10.37,2013-07-18 01:00:00,
2013-07-17 20:05:00,78.6,71.2,30.06,WSW,252,6.0,6.0,78,0.00,,SKC,0.00,0.0,WeatherDisplay:10.37,2013-07-18 01:05:00,
2013-07-17 20:10:00,78.3,70.9,30.06,WSW,250,4.6,4.6,78,0.00,,SKC,0.00,0.0,WeatherDisplay:10.37,2013-07-18 01:10:00,
2013-07-17 20:15:00,78.1,70.7,30.06,WSW,249,4.6,4.6,78,0.00,,SKC,0.00,0.0,WeatherDisplay:10.37,2013-07-18 01:15:00,
2013-07-17 20:20:00,77.9,70.9,30.06,WSW,248,4.6,4.6,79,0.00,,SKC,0.00,0.0,WeatherDisplay:10.37,2013-07-18 01:20:00,
2013-07-17 20:25:00,77.7,70.3,30.05,WSW,237,4.6,4.9,78,0.00,,SKC,0.00,0.0,WeatherDisplay:10.37,2013-07-18 01:25:00,
2013-07-17 20:31:00,77.4,70.4,30.05,SW,230,4.6,4.6,79,0.00,,SKC,0.00,0.0,WeatherDisplay:10.37,2013-07-18 01:31:00,
2013-07-17 20:36:00,77.4,70.4,30.05,SW,229,4.0,4.0,79,0.00,,SKC,0.00,0.0,WeatherDisplay:10.37,2013-07-18 01:36:00,
2013-07-17 20:41:00,77.4,70.0,30.05,SW,229,3.5,3.5,78,0.00,,SKC,0.00,0.0,WeatherDisplay:10.37,2013-07-18 01:41:00,
2013-07-17 20:46:00,77.4,70.0,30.05,SW,229,3.5,3.5,78,0.00,,SKC,0.00,0.0,WeatherDisplay:10.37,2013-07-18 01:46:00,
2013-07-17 20:51:00,77.6,70.6,30.05,SW,229,4.6,4.6,79,0.00,,SKC,0.00,0.0,WeatherDisplay:10.37,2013-07-18 01:51:00,
2013-07-17 20:56:00,77.4,70.0,30.05,SW,229,4.6,4.6,78,0.00,,SKC,0.00,0.0,WeatherDisplay:10.37,2013-07-18 01:56:00,
2013-07-17 21:01:00,77.4,70.0,30.06,SW,229,4.0,4.0,78,0.00,,SKC,0.00,0.0,WeatherDisplay:10.37,2013-07-18 02:01:00,
2013-07-17 21:07:00,77.4,70.4,30.05,SW,229,4.6,4.6,79,0.00,,SKC,0.00,0.0,WeatherDisplay:10.37,2013-07-18 02:07:00,
2013-07-17 21:12:00,77.2,70.2,30.05,SW,229,4.6,4.6,79,0.00,,SKC,0.00,0.0,WeatherDisplay:10.37,2013-07-18 02:12:00,
2013-07-17 21:17:00,77.0,70.0,30.05,SW,229,4.0,4.0,79,0.00,,SKC,0.00,0.0,WeatherDisplay:10.37,2013-07-18 02:17:00,
2013-07-17 21:22:00,76.8,70.2,30.05,SW,229,4.0,4.0,80,0.00,,SKC,0.00,0.0,WeatherDisplay:10.37,2013-07-18 02:22:00,
2013-07-17 21:27:00,76.7,70.1,30.05,SW,229,4.0,4.0,80,0.00,,SKC,0.00,0.0,WeatherDisplay:10.37,2013-07-18 02:27:00,
2013-07-17 21:32:00,76.5,69.9,30.05,SW,229,3.5,3.5,80,0.00,,SKC,0.00,0.0,WeatherDisplay:10.37,2013-07-18 02:32:00,
2013-07-17 21:37:00,76.3,69.7,30.05,SW,229,3.5,3.5,80,0.00,,SKC,0.00,0.0,WeatherDisplay:10.37,2013-07-18 02:37:00,
2013-07-17 21:42:00,76.1,69.8,30.05,SW,229,3.5,3.5,81,0.00,,SKC,0.00,0.0,WeatherDisplay:10.37,2013-07-18 02:42:00,
2013-07-17 21:48:00,76.0,69.7,30.05,SW,229,4.0,4.0,81,0.00,,SKC,0.00,0.0,WeatherDisplay:10.37,2013-07-18 02:48:00,
2013-07-17 21:53:00,75.8,69.9,30.06,SW,229,4.0,4.0,82,0.00,,SKC,0.00,0.0,WeatherDisplay:10.37,2013-07-18 02:53:00,
2013-07-17 21:58:00,75.6,69.7,30.06,SW,229,4.0,4.0,82,0.00,,SKC,0.00,0.0,WeatherDisplay:10.37,2013-07-18 02:58:00,
2013-07-17 22:03:00,75.4,69.9,30.05,SW,229,4.0,4.0,83,0.00,,SKC,0.00,0.0,WeatherDisplay:10.37,2013-07-18 03:03:00,
2013-07-17 22:08:00,75.1,69.2,30.05,SW,224,5.8,5.8,82,0.00,,SKC,0.00,0.0,WeatherDisplay:10.37,2013-07-18 03:08:00,
2013-07-17 22:13:00,74.9,69.4,30.05,SW,222,5.8,5.8,83,0.00,,SKC,0.00,0.0,WeatherDisplay:10.37,2013-07-18 03:13:00,
2013-07-17 22:18:00,74.7,69.2,30.06,SW,222,4.6,4.6,83,0.00,,SKC,0.00,0.0,WeatherDisplay:10.37,2013-07-18 03:18:00,
2013-07-17 22:24:00,74.6,69.1,30.05,SW,222,4.6,4.6,83,0.00,,SKC,0.00,0.0,WeatherDisplay:10.37,2013-07-18 03:24:00,
2013-07-17 22:29:00,74.4,69.2,30.05,SW,222,3.5,3.5,84,0.00,,SKC,0.00,0.0,WeatherDisplay:10.37,2013-07-18 03:29:00,
2013-07-17 22:34:00,74.2,69.1,30.05,SW,222,3.5,3.5,84,0.00,,SKC,0.00,0.0,WeatherDisplay:10.37,2013-07-18 03:34:00,
2013-07-17 22:39:00,74.0,69.2,30.05,SW,222,4.0,4.0,85,0.00,,SKC,0.00,0.0,WeatherDisplay:10.37,2013-07-18 03:39:00,
2013-07-17 22:44:00,73.9,69.1,30.05,SW,222,4.6,4.6,85,0.00,,SKC,0.00,0.0,WeatherDisplay:10.37,2013-07-18 03:44:00,
2013-07-17 22:49:00,73.9,69.1,30.06,SW,222,4.6,4.6,85,0.00,,SKC,0.00,0.0,WeatherDisplay:10.37,2013-07-18 03:49:00,
2013-07-17 22:54:00,73.7,68.9,30.05,SW,222,3.0,5.0,85,0.00,,SKC,0.00,0.0,WeatherDisplay:10.37,2013-07-18 03:54:00,
2013-07-17 22:59:00,73.5,68.7,30.06,SW,222,4.0,4.0,85,0.00,,SKC,0.00,0.0,WeatherDisplay:10.37,2013-07-18 03:59:00,
2013-07-17 23:01:00,73.5,69.1,30.05,SW,222,4.6,4.6,86,0.00,,SKC,0.00,0.0,WeatherDisplay:10.37,2013-07-18 04:01:00,
2013-07-17 23:03:00,73.5,69.1,30.05,SW,222,4.0,4.0,86,0.00,,SKC,0.00,0.0,WeatherDisplay:10.37,2013-07-18 04:03:00,
2013-07-17 23:04:00,73.5,69.1,30.05,SW,222,4.0,4.0,86,0.00,,SKC,0.00,0.0,WeatherDisplay:10.37,2013-07-18 04:04:00,
2013-07-17 23:09:00,73.3,68.9,30.05,SW,222,5.0,5.0,86,0.00,,SKC,0.00,0.0,WeatherDisplay:10.37,2013-07-18 04:09:00,
2013-07-17 23:14:00,73.2,68.8,30.05,SW,222,4.6,4.6,86,0.00,,SKC,0.00,0.0,WeatherDisplay:10.37,2013-07-18 04:14:00,
2013-07-17 23:19:00,73.0,68.6,30.05,SW,222,4.6,4.6,86,0.00,,SKC,0.00,0.0,WeatherDisplay:10.37,2013-07-18 04:19:00,
2013-07-17 23:24:00,73.0,68.9,30.05,SW,222,4.6,4.6,87,0.00,,SKC,0.00,0.0,WeatherDisplay:10.37,2013-07-18 04:24:00,
2013-07-17 23:29:00,72.8,68.7,30.05,SW,222,4.6,4.6,87,0.00,,SKC,0.00,0.0,WeatherDisplay:10.37,2013-07-18 04:29:00,
2013-07-17 23:34:00,72.7,68.6,30.05,SW,222,3.0,5.0,87,0.00,,SKC,0.00,0.0,WeatherDisplay:10.37,2013-07-18 04:34:00,
2013-07-17 23:39:00,72.6,68.5,30.05,SW,222,5.0,6.0,87,0.00,,SKC,0.00,0.0,WeatherDisplay:10.37,2013-07-18 04:39:00,
2013-07-17 23:44:00,72.5,68.4,30.05,SW,222,5.0,5.0,87,0.00,,SKC,0.00,0.0,WeatherDisplay:10.37,2013-07-18 04:44:00,
2013-07-17 23:50:00,72.3,68.2,30.05,SW,222,3.0,5.0,87,0.00,,SKC,0.00,0.0,WeatherDisplay:10.37,2013-07-18 04:50:00,
2013-07-17 23:55:00,72.1,68.0,30.05,SW,222,4.6,4.6,87,0.00,,SKC,0.00,0.0,WeatherDisplay:10.37,2013-07-18 04:55:00,